createdAt,value
2017-05-02T00:00:52.766Z,5.02
2017-05-02T00:03:21.158Z,4.58
2017-05-02T00:05:50.219Z,4.36
2017-05-02T00:08:19.339Z,5.04
2017-05-02T00:10:47.638Z,4.98
2017-05-02T00:13:16.698Z,5.12
2017-05-02T00:15:45.833Z,5.90
2017-05-02T00:18:14.902Z,6.22
2017-05-02T00:20:43.201Z,5.06
2017-05-02T00:23:12.300Z,4.90
2017-05-02T00:25:41.369Z,5.86
2017-05-02T00:28:09.732Z,5.12
2017-05-02T00:30:38.039Z,6.00
2017-05-02T00:33:07.102Z,5.84
2017-05-02T00:35:35.457Z,5.76
2017-05-02T00:38:03.816Z,5.58
2017-05-02T00:40:32.874Z,5.38
2017-05-02T00:43:01.185Z,4.42
2017-05-02T00:45:29.519Z,5.72
2017-05-02T00:47:57.878Z,5.52
2017-05-02T00:50:26.181Z,5.28
2017-05-02T00:52:54.517Z,6.70
2017-05-02T00:55:22.841Z,5.48
2017-05-02T00:57:51.941Z,5.74
2017-05-02T01:00:20.294Z,5.02
2017-05-02T01:02:48.597Z,5.72
2017-05-02T01:05:16.889Z,6.26
2017-05-02T01:07:45.986Z,5.98
2017-05-02T01:10:15.078Z,5.62
2017-05-02T01:12:43.430Z,6.20
2017-05-02T01:15:11.780Z,6.20
2017-05-02T01:17:40.103Z,7.20
2017-05-02T01:20:08.437Z,5.82
2017-05-02T01:22:36.729Z,6.18
2017-05-02T01:25:05.798Z,6.18
2017-05-02T01:27:34.910Z,7.00
2017-05-02T01:30:03.218Z,6.66
2017-05-02T01:32:31.510Z,6.88
2017-05-02T01:34:59.845Z,5.26
2017-05-02T01:37:28.905Z,6.10
2017-05-02T01:39:57.203Z,6.60
2017-05-02T01:42:25.547Z,6.40
2017-05-02T01:44:53.842Z,5.64
2017-05-02T01:47:22.153Z,6.88
2017-05-02T01:49:51.269Z,7.18
2017-05-02T01:52:19.560Z,6.84
2017-05-02T01:54:47.859Z,5.68
2017-05-02T01:57:16.195Z,8.16
2017-05-02T01:59:44.524Z,8.42
2017-05-02T02:02:12.877Z,7.32
2017-05-02T02:04:42.767Z,7.94
2017-05-02T02:07:11.068Z,6.80
2017-05-02T02:09:39.362Z,7.02
2017-05-02T02:12:08.465Z,8.24
2017-05-02T02:14:36.757Z,8.30
2017-05-02T02:17:05.071Z,7.80
2017-05-02T02:19:33.408Z,7.68
2017-05-02T02:22:02.487Z,7.32
2017-05-02T02:24:30.795Z,8.18
2017-05-02T02:26:59.148Z,6.84
2017-05-02T02:29:27.453Z,7.16
2017-05-02T02:31:55.752Z,7.38
2017-05-02T02:34:24.161Z,7.16
2017-05-02T02:36:53.231Z,7.92
2017-05-02T02:39:21.553Z,7.48
2017-05-02T02:41:49.924Z,7.04
2017-05-02T02:44:18.232Z,6.82
2017-05-02T02:46:46.550Z,7.44
2017-05-02T02:49:14.896Z,8.02
2017-05-02T02:51:43.198Z,8.02
2017-05-02T02:54:11.507Z,8.34
2017-05-02T02:56:40.873Z,6.34
2017-05-02T02:59:09.185Z,7.66
2017-05-02T03:01:38.264Z,7.00
2017-05-02T03:04:07.393Z,5.68
2017-05-02T03:06:36.463Z,6.84
2017-05-02T03:09:04.844Z,5.38
2017-05-02T03:11:33.211Z,8.10
2017-05-02T03:14:01.507Z,6.18
2017-05-02T03:16:29.822Z,6.12
2017-05-02T03:18:58.951Z,6.80
2017-05-02T03:21:27.269Z,7.18
2017-05-02T03:23:55.821Z,7.50
2017-05-02T03:26:24.201Z,7.28
2017-05-02T03:28:52.534Z,7.50
2017-05-02T03:31:20.841Z,6.48
2017-05-02T03:33:49.960Z,6.90
2017-05-02T03:36:18.262Z,6.38
2017-05-02T03:38:46.562Z,7.06
2017-05-02T03:41:14.889Z,6.66
2017-05-02T03:43:43.186Z,7.98
2017-05-02T03:46:11.537Z,5.78
2017-05-02T03:48:39.830Z,6.18
2017-05-02T03:51:08.132Z,5.88
2017-05-02T03:53:36.481Z,6.60
2017-05-02T03:56:04.780Z,6.78
2017-05-02T03:58:33.095Z,7.22
2017-05-02T04:01:02.210Z,6.86
2017-05-02T04:03:30.519Z,8.16
2017-05-02T04:05:58.823Z,6.72
2017-05-02T04:08:27.217Z,8.24
2017-05-02T04:10:55.551Z,7.44
2017-05-02T04:13:23.860Z,7.44
2017-05-02T04:15:52.987Z,7.00
2017-05-02T04:18:22.054Z,6.62
2017-05-02T04:20:50.357Z,8.36
2017-05-02T04:23:19.461Z,8.06
2017-05-02T04:25:48.535Z,8.64
2017-05-02T04:28:16.834Z,7.52
2017-05-02T04:30:45.968Z,7.48
2017-05-02T04:33:14.275Z,7.22
2017-05-02T04:35:42.618Z,7.46
2017-05-02T04:38:10.918Z,7.64
2017-05-02T04:40:39.565Z,8.20
2017-05-02T04:43:07.909Z,7.90
2017-05-02T04:45:36.210Z,7.84
2017-05-02T04:48:05.273Z,7.94
2017-05-02T04:50:33.623Z,7.60
2017-05-02T04:53:01.915Z,7.86
2017-05-02T04:55:30.219Z,7.60
2017-05-02T04:57:58.574Z,8.54
2017-05-02T05:00:26.877Z,9.40
2017-05-02T05:02:55.935Z,8.72
2017-05-02T05:05:24.286Z,9.66
2017-05-02T05:07:52.597Z,7.82
2017-05-02T05:10:20.901Z,7.28
2017-05-02T05:12:49.264Z,7.20
2017-05-02T05:15:17.561Z,8.36
2017-05-02T05:17:46.618Z,6.62
2017-05-02T05:20:14.965Z,7.92
2017-05-02T05:22:43.473Z,7.10
2017-05-02T05:25:12.534Z,8.48
2017-05-02T05:27:40.866Z,6.18
2017-05-02T05:30:09.166Z,7.62
2017-05-02T05:32:37.483Z,7.30
2017-05-02T05:35:05.834Z,5.84
2017-05-02T05:37:34.904Z,6.82
2017-05-02T05:40:03.196Z,6.30
2017-05-02T05:42:31.549Z,6.80
2017-05-02T05:44:59.842Z,6.20
2017-05-02T05:47:28.187Z,6.88
2017-05-02T05:49:58.052Z,5.92
2017-05-02T05:52:26.356Z,5.02
2017-05-02T05:54:55.412Z,5.22
2017-05-02T05:57:24.505Z,4.92
2017-05-02T05:59:52.795Z,5.86
2017-05-02T06:02:21.854Z,5.78
2017-05-02T06:04:50.181Z,5.10
2017-05-02T06:07:18.474Z,4.68
2017-05-02T06:09:46.773Z,4.88
2017-05-02T06:12:15.100Z,4.72
2017-05-02T06:14:44.280Z,4.22
2017-05-02T06:17:14.110Z,5.02
2017-05-02T06:19:43.184Z,5.20
2017-05-02T06:22:11.485Z,5.66
2017-05-02T06:24:40.568Z,6.94
2017-05-02T06:27:09.693Z,4.84
2017-05-02T06:29:38.756Z,6.04
2017-05-02T06:32:07.853Z,4.98
2017-05-02T06:34:36.916Z,5.02
2017-05-02T06:37:05.216Z,4.82
2017-05-02T06:39:33.539Z,4.00
2017-05-02T06:42:02.594Z,4.68
2017-05-02T06:44:30.931Z,3.62
2017-05-02T06:46:59.228Z,4.18
2017-05-02T06:49:28.307Z,4.32
2017-05-02T06:51:56.674Z,4.04
2017-05-02T06:54:26.167Z,3.66
2017-05-02T06:56:55.252Z,4.20
2017-05-02T06:59:23.601Z,3.84
2017-05-02T07:01:51.890Z,4.42
2017-05-02T07:04:20.178Z,4.08
2017-05-02T07:06:49.257Z,5.08
2017-05-02T07:09:17.598Z,4.34
2017-05-02T07:11:46.649Z,4.58
2017-05-02T07:14:14.953Z,4.12
2017-05-02T07:16:43.274Z,3.62
2017-05-02T07:19:11.566Z,4.30
2017-05-02T07:21:41.422Z,3.92
2017-05-02T07:24:09.730Z,3.68
2017-05-02T07:26:38.031Z,4.90
2017-05-02T07:29:06.362Z,4.42
2017-05-02T07:31:34.652Z,5.34
2017-05-02T07:34:02.935Z,5.36
2017-05-02T07:36:31.292Z,4.76
2017-05-02T07:38:59.587Z,4.58
2017-05-02T07:41:27.888Z,5.18
2017-05-02T07:43:56.214Z,4.72
2017-05-02T07:46:25.276Z,5.44
2017-05-02T07:48:54.518Z,4.46
2017-05-02T07:51:22.834Z,6.42
2017-05-02T07:53:51.936Z,5.14
2017-05-02T07:56:20.232Z,6.32
2017-05-02T07:58:49.323Z,6.54
2017-05-02T08:01:18.389Z,5.58
2017-05-02T08:03:46.682Z,6.34
2017-05-02T08:06:15.781Z,5.22
2017-05-02T08:08:44.095Z,6.48
2017-05-02T08:11:12.388Z,7.68
2017-05-02T08:13:40.721Z,6.98
2017-05-02T08:16:09.794Z,7.66
2017-05-02T08:18:39.641Z,6.92
2017-05-02T08:21:08.711Z,7.70
2017-05-02T08:23:36.998Z,8.06
2017-05-02T08:26:06.095Z,7.50
2017-05-02T08:28:34.389Z,6.20
2017-05-02T08:31:02.696Z,7.08
2017-05-02T08:33:31.035Z,8.62
2017-05-02T08:36:00.103Z,7.12
2017-05-02T08:38:28.415Z,7.98
2017-05-02T08:40:57.524Z,7.08
2017-05-02T08:43:26.591Z,8.60
2017-05-02T08:45:55.729Z,7.84
2017-05-02T08:48:24.030Z,7.62
2017-05-02T08:50:52.329Z,7.74
2017-05-02T08:53:22.239Z,7.68
2017-05-02T08:55:50.534Z,7.96
2017-05-02T08:58:19.601Z,9.08
2017-05-02T09:00:47.948Z,7.66
2017-05-02T09:03:16.260Z,8.44
2017-05-02T09:05:44.562Z,8.80
2017-05-02T09:08:12.914Z,7.24
2017-05-02T09:10:41.230Z,9.22
2017-05-02T09:13:10.301Z,7.56
2017-05-02T09:15:38.657Z,7.50
2017-05-02T09:18:06.961Z,7.20
2017-05-02T09:20:36.033Z,8.22
2017-05-02T09:23:04.375Z,7.10
2017-05-02T09:25:33.446Z,7.12
2017-05-02T09:28:02.556Z,7.60
2017-05-02T09:30:31.621Z,7.40
2017-05-02T09:32:59.922Z,7.50
2017-05-02T09:35:29.021Z,7.40
2017-05-02T09:37:57.333Z,7.10
2017-05-02T09:40:25.638Z,7.68
2017-05-02T09:42:53.982Z,8.68
2017-05-02T09:45:22.294Z,7.48
2017-05-02T09:47:50.606Z,7.62
2017-05-02T09:50:19.744Z,7.86
2017-05-02T09:52:48.289Z,7.44
2017-05-02T09:55:17.365Z,7.42
2017-05-02T09:57:45.713Z,7.08
2017-05-02T10:00:14.034Z,7.28
2017-05-02T10:02:43.105Z,8.54
2017-05-02T10:05:12.235Z,6.34
2017-05-02T10:07:40.549Z,7.18
2017-05-02T10:10:08.857Z,6.68
2017-05-02T10:12:37.213Z,7.32
2017-05-02T10:15:05.531Z,8.94
2017-05-02T10:17:34.699Z,8.26
2017-05-02T10:20:03.058Z,7.76
2017-05-02T10:22:31.383Z,7.84
2017-05-02T10:25:00.446Z,7.36
2017-05-02T10:27:28.821Z,7.66
2017-05-02T10:29:57.129Z,7.42
2017-05-02T10:32:26.213Z,7.64
2017-05-02T10:34:54.576Z,7.12
2017-05-02T10:37:22.878Z,8.20
2017-05-02T10:39:51.185Z,7.30
2017-05-02T10:42:19.542Z,10.12
2017-05-02T10:44:48.733Z,8.12
2017-05-02T10:47:17.048Z,8.10
2017-05-02T10:49:45.405Z,9.86
2017-05-02T10:52:14.475Z,7.86
2017-05-02T10:54:42.781Z,8.96
2017-05-02T10:57:11.906Z,10.98
2017-05-02T10:59:40.231Z,9.58
2017-05-02T11:02:09.331Z,10.04
2017-05-02T11:04:38.481Z,8.80
2017-05-02T11:07:06.789Z,9.26
2017-05-02T11:09:35.090Z,9.80
2017-05-02T11:12:03.435Z,8.64
2017-05-02T11:14:32.497Z,8.22
2017-05-02T11:17:00.820Z,9.06
2017-05-02T11:19:29.162Z,9.90
2017-05-02T11:21:57.532Z,9.34
2017-05-02T11:24:27.353Z,10.18
2017-05-02T11:26:55.715Z,10.12
2017-05-02T11:29:24.016Z,9.14
2017-05-02T11:31:52.320Z,10.38
2017-05-02T11:34:20.659Z,10.96
2017-05-02T11:36:49.211Z,10.58
2017-05-02T11:39:18.293Z,9.06
2017-05-02T11:41:46.647Z,11.58
2017-05-02T11:44:15.035Z,10.56
2017-05-02T11:46:43.342Z,9.76
2017-05-02T11:49:12.478Z,9.72
2017-05-02T11:51:40.776Z,9.16
2017-05-02T11:54:09.075Z,9.80
2017-05-02T11:56:37.435Z,10.92
2017-05-02T11:59:05.743Z,10.32
2017-05-02T12:01:34.886Z,9.38
2017-05-02T12:04:03.254Z,9.60
2017-05-02T12:06:31.556Z,9.04
2017-05-02T12:08:59.868Z,9.20
2017-05-02T12:11:28.984Z,9.86
2017-05-02T12:13:58.051Z,9.28
2017-05-02T12:16:26.362Z,10.12
2017-05-02T12:18:55.483Z,9.16
2017-05-02T12:21:23.790Z,10.36
2017-05-02T12:23:52.090Z,9.90
2017-05-02T12:26:20.437Z,8.76
2017-05-02T12:28:48.963Z,10.40
2017-05-02T12:31:17.313Z,11.04
2017-05-02T12:33:45.665Z,9.36
2017-05-02T12:36:13.981Z,10.04
2017-05-02T12:38:43.076Z,10.62
2017-05-02T12:41:11.441Z,10.18
2017-05-02T12:43:39.745Z,9.76
2017-05-02T12:46:08.825Z,10.20
2017-05-02T12:48:37.166Z,8.98
2017-05-02T12:51:05.501Z,10.84
2017-05-02T12:53:34.597Z,11.12
2017-05-02T12:56:03.878Z,10.20
2017-05-02T12:58:32.958Z,9.48
2017-05-02T13:01:01.268Z,10.48
2017-05-02T13:03:30.383Z,10.20
2017-05-02T13:05:58.695Z,11.34
2017-05-02T13:08:27.001Z,10.84
2017-05-02T13:10:55.376Z,10.76
2017-05-02T13:13:23.690Z,12.66
2017-05-02T13:15:52.009Z,11.92
2017-05-02T13:18:20.370Z,12.68
2017-05-02T13:20:48.706Z,11.96
2017-05-02T13:23:17.787Z,13.68
2017-05-02T13:25:46.132Z,12.40
2017-05-02T13:28:14.459Z,13.00
2017-05-02T13:30:43.533Z,13.54
2017-05-02T13:33:11.886Z,12.14
2017-05-02T13:35:40.205Z,13.54
2017-05-02T13:38:08.513Z,14.46
2017-05-02T13:40:36.866Z,15.24
2017-05-02T13:43:05.941Z,16.62
2017-05-02T13:45:34.251Z,16.14
2017-05-02T13:48:02.598Z,16.12
2017-05-02T13:50:30.905Z,15.20
2017-05-02T13:52:59.986Z,16.32
2017-05-02T13:55:29.112Z,16.14
2017-05-02T13:57:57.705Z,16.90
2017-05-02T14:00:26.009Z,17.58
2017-05-02T14:02:54.369Z,17.06
2017-05-02T14:05:22.692Z,17.04
2017-05-02T14:07:51.015Z,16.92
2017-05-02T14:10:19.373Z,16.40
2017-05-02T14:12:48.457Z,18.18
2017-05-02T14:15:17.580Z,17.48
2017-05-02T14:17:45.893Z,16.40
2017-05-02T14:20:14.212Z,18.72
2017-05-02T14:22:42.562Z,18.92
2017-05-02T14:25:10.878Z,12.58
2017-05-02T14:27:39.201Z,8.72
2017-05-02T14:30:08.318Z,8.30
2017-05-02T14:32:36.625Z,7.44
2017-05-02T14:35:04.936Z,8.34
2017-05-02T14:37:34.043Z,10.06
2017-05-02T14:40:03.117Z,9.22
2017-05-02T14:42:31.428Z,11.38
2017-05-02T14:44:59.774Z,10.96
2017-05-02T14:47:28.085Z,9.88
2017-05-02T14:49:57.150Z,8.08
2017-05-02T14:52:26.260Z,8.24
2017-05-02T14:54:55.337Z,10.34
2017-05-02T14:57:24.477Z,9.68
2017-05-02T14:59:52.793Z,8.92
2017-05-02T15:02:21.114Z,11.72
2017-05-02T15:04:50.959Z,10.60
2017-05-02T15:07:19.293Z,9.78
2017-05-02T15:09:48.408Z,9.42
2017-05-02T15:12:16.721Z,11.12
2017-05-02T15:14:45.034Z,10.72
2017-05-02T15:17:14.194Z,10.64
2017-05-02T15:19:42.511Z,12.28
2017-05-02T15:22:12.389Z,8.90
2017-05-02T15:24:40.699Z,10.06
2017-05-02T15:27:09.023Z,9.94
2017-05-02T15:29:37.419Z,10.24
2017-05-02T15:32:05.718Z,9.76
2017-05-02T15:34:34.021Z,9.76
2017-05-02T15:37:03.243Z,11.02
2017-05-02T15:39:32.318Z,11.82
2017-05-02T15:42:01.425Z,7.74
2017-05-02T15:44:30.496Z,7.06
2017-05-02T15:46:58.794Z,5.00
2017-05-02T15:49:27.143Z,4.74
2017-05-02T15:51:56.219Z,4.08
2017-05-02T15:54:25.331Z,4.52
2017-05-02T15:56:54.414Z,4.10
2017-05-02T15:59:22.710Z,3.80
2017-05-02T16:01:51.809Z,4.54
2017-05-02T16:04:20.109Z,3.78
2017-05-02T16:06:48.403Z,4.12
2017-05-02T16:09:16.783Z,4.44
2017-05-02T16:11:45.076Z,4.38
2017-05-02T16:14:13.383Z,3.48
2017-05-02T16:16:42.483Z,3.74
2017-05-02T16:19:11.546Z,4.40
2017-05-02T16:21:39.871Z,4.00
2017-05-02T16:24:08.210Z,4.78
2017-05-02T16:26:37.289Z,4.72
2017-05-02T16:29:05.601Z,5.20
2017-05-02T16:31:34.715Z,5.38
2017-05-02T16:34:03.011Z,4.74
2017-05-02T16:36:31.322Z,5.20
2017-05-02T16:38:59.694Z,4.58
2017-05-02T16:41:28.014Z,4.62
2017-05-02T16:43:57.328Z,3.54
2017-05-02T16:46:25.661Z,4.18
2017-05-02T16:48:54.838Z,4.40
2017-05-02T16:51:23.130Z,3.70
2017-05-02T16:53:51.463Z,3.54
2017-05-02T16:56:19.788Z,1.96
2017-05-02T16:58:48.080Z,1.90
2017-05-02T17:01:16.373Z,1.44
2017-05-02T17:03:45.470Z,1.42
2017-05-02T17:06:14.533Z,1.44
2017-05-02T17:08:44.386Z,1.12
2017-05-02T17:11:12.688Z,1.18
2017-05-02T17:13:40.979Z,0.98
2017-05-02T17:16:10.350Z,1.42
2017-05-02T17:18:38.649Z,1.26
2017-05-02T17:21:06.950Z,1.52
2017-05-02T17:23:35.290Z,1.46
2017-05-02T17:26:03.591Z,1.24
2017-05-02T17:28:31.900Z,1.40
2017-05-02T17:31:00.259Z,1.60
2017-05-02T17:33:29.327Z,1.70
2017-05-02T17:35:57.633Z,1.68
2017-05-02T17:38:25.968Z,1.78
2017-05-02T17:40:55.037Z,1.60
2017-05-02T17:43:24.138Z,1.10
2017-05-02T17:45:53.211Z,1.46
2017-05-02T17:48:21.568Z,1.90
2017-05-02T17:50:49.880Z,1.82
2017-05-02T17:53:18.939Z,1.76
2017-05-02T17:55:47.264Z,1.64
2017-05-02T17:58:16.325Z,1.74
2017-05-02T18:00:44.667Z,1.78
2017-05-02T18:03:13.002Z,1.92
2017-05-02T18:05:42.085Z,2.02
2017-05-02T18:08:11.208Z,1.90
2017-05-02T18:10:41.060Z,2.44
2017-05-02T18:13:10.230Z,1.80
2017-05-02T18:15:38.563Z,2.24
2017-05-02T18:18:06.958Z,2.18
2017-05-02T18:20:35.608Z,1.88
2017-05-02T18:23:04.164Z,1.72
2017-05-02T18:25:32.914Z,2.22
2017-05-02T18:28:02.107Z,2.36
2017-05-02T18:30:30.410Z,1.80
2017-05-02T18:32:58.716Z,1.74
2017-05-02T18:35:27.104Z,1.64
2017-05-02T18:37:55.447Z,2.08
2017-05-02T18:40:23.786Z,2.20
2017-05-02T18:42:52.118Z,2.20
2017-05-02T18:45:20.417Z,1.80
2017-05-02T18:47:48.720Z,1.90
2017-05-02T18:50:17.057Z,2.40
2017-05-02T18:52:45.346Z,1.90
2017-05-02T18:55:14.436Z,1.90
2017-05-02T18:57:42.770Z,1.96
2017-05-02T19:00:11.071Z,1.70
2017-05-02T19:02:39.366Z,2.00
2017-05-02T19:05:07.692Z,1.70
2017-05-02T19:07:35.985Z,1.84
2017-05-02T19:10:04.333Z,1.82
2017-05-02T19:12:32.637Z,1.92
2017-05-02T19:15:00.955Z,2.58
2017-05-02T19:17:29.322Z,2.60
2017-05-02T19:19:57.618Z,2.20
2017-05-02T19:22:26.682Z,1.94
2017-05-02T19:24:55.146Z,1.98
2017-05-02T19:27:23.429Z,3.14
2017-05-02T19:29:51.722Z,5.74
2017-05-02T19:32:20.056Z,3.26
2017-05-02T19:34:48.351Z,1.70
2017-05-02T19:37:16.645Z,2.02
2017-05-02T19:39:44.984Z,1.92
2017-05-02T19:42:13.275Z,2.44
2017-05-02T19:44:42.337Z,2.10
2017-05-02T19:47:11.463Z,1.92
2017-05-02T19:49:39.770Z,2.02
2017-05-02T19:52:08.839Z,2.12
2017-05-02T19:54:37.943Z,2.04
2017-05-02T19:57:06.254Z,2.24
2017-05-02T19:59:34.560Z,2.04
2017-05-02T20:02:03.675Z,3.30
2017-05-02T20:04:32.763Z,2.52
2017-05-02T20:07:01.871Z,2.80
2017-05-02T20:09:30.169Z,11.14
2017-05-02T20:11:58.471Z,2.08
2017-05-02T20:14:27.634Z,2.58
2017-05-02T20:16:56.047Z,3.56
2017-05-02T20:19:24.343Z,2.22
2017-05-02T20:21:53.449Z,3.50
2017-05-02T20:24:22.509Z,3.58
2017-05-02T20:26:50.806Z,3.82
2017-05-02T20:29:19.903Z,2.52
2017-05-02T20:31:48.199Z,4.14
2017-05-02T20:34:16.502Z,4.02
2017-05-02T20:36:44.873Z,4.14
2017-05-02T20:39:13.182Z,3.76
2017-05-02T20:41:42.243Z,3.46
2017-05-02T20:44:10.589Z,4.12
2017-05-02T20:46:38.885Z,3.78
2017-05-02T20:49:07.191Z,4.12
2017-05-02T20:51:35.550Z,4.48
2017-05-02T20:54:03.847Z,5.20
2017-05-02T20:56:32.166Z,5.42
2017-05-02T20:59:01.289Z,6.48
2017-05-02T21:01:29.589Z,5.24
2017-05-02T21:03:57.895Z,5.42
2017-05-02T21:06:26.242Z,6.42
2017-05-02T21:08:54.717Z,5.88
2017-05-02T21:11:23.022Z,6.84
2017-05-02T21:13:52.878Z,5.68
2017-05-02T21:16:21.177Z,7.22
2017-05-02T21:18:49.498Z,5.40
2017-05-02T21:21:18.666Z,6.20
2017-05-02T21:23:46.961Z,5.48
2017-05-02T21:26:15.257Z,5.96
2017-05-02T21:28:44.365Z,5.92
2017-05-02T21:31:13.428Z,7.94
2017-05-02T21:33:41.726Z,6.18
2017-05-02T21:36:10.825Z,6.78
2017-05-02T21:38:39.953Z,7.62
2017-05-02T21:41:08.250Z,4.72
2017-05-02T21:43:36.581Z,5.80
2017-05-02T21:46:04.877Z,7.22
2017-05-02T21:48:33.945Z,6.86
2017-05-02T21:51:03.045Z,4.86
2017-05-02T21:53:31.355Z,6.52
2017-05-02T21:55:59.650Z,7.22
2017-05-02T21:58:28.005Z,6.70
2017-05-02T22:00:56.335Z,6.04
2017-05-02T22:03:24.629Z,7.30
2017-05-02T22:05:53.749Z,5.18
2017-05-02T22:08:22.062Z,5.76
2017-05-02T22:10:51.144Z,7.16
2017-05-02T22:13:20.288Z,6.36
2017-05-02T22:15:49.383Z,6.92
2017-05-02T22:18:17.683Z,8.40
2017-05-02T22:20:46.024Z,6.30
2017-05-02T22:23:15.082Z,6.48
2017-05-02T22:25:43.374Z,6.16
2017-05-02T22:28:11.727Z,6.52
2017-05-02T22:30:40.795Z,7.22
2017-05-02T22:33:09.921Z,6.52
2017-05-02T22:35:38.221Z,6.10
2017-05-02T22:38:06.515Z,5.48
2017-05-02T22:40:34.887Z,5.84
2017-05-02T22:43:03.177Z,6.46
2017-05-02T22:45:31.472Z,5.12
2017-05-02T22:48:00.590Z,4.96
2017-05-02T22:50:28.882Z,5.40
2017-05-02T22:52:57.439Z,4.90
2017-05-02T22:55:26.545Z,5.62
2017-05-02T22:57:54.852Z,5.50
2017-05-02T23:00:23.144Z,4.62
2017-05-02T23:02:51.510Z,6.72
2017-05-02T23:05:19.848Z,6.30
2017-05-02T23:07:48.904Z,6.16
2017-05-02T23:10:17.200Z,5.72
2017-05-02T23:12:46.306Z,6.80
2017-05-02T23:15:15.381Z,6.94
2017-05-02T23:17:43.689Z,8.08
2017-05-02T23:20:12.787Z,5.72
2017-05-02T23:22:41.082Z,5.58
2017-05-02T23:25:09.377Z,5.70
2017-05-02T23:27:37.739Z,4.60
2017-05-02T23:30:06.031Z,5.02
2017-05-02T23:32:34.335Z,6.50
2017-05-02T23:35:02.678Z,5.46
2017-05-02T23:37:30.982Z,5.42
2017-05-02T23:39:59.281Z,6.08
2017-05-02T23:42:27.620Z,6.26
2017-05-02T23:44:55.941Z,7.50
2017-05-02T23:47:25.012Z,8.60
2017-05-02T23:49:53.359Z,8.34
2017-05-02T23:52:21.654Z,9.32
2017-05-02T23:54:50.738Z,8.64
2017-05-02T23:57:19.069Z,7.80
2017-05-02T23:59:48.142Z,7.38
